Aviation Digital Data Service (ADDS)

Output produced by METARs form (0025 UTC 24 May 2022)
found at http://www.aviationweather.gov/metar/data/
 
EYKA 240020Z AUTO VRB01KT 9999 NCD 05/02 Q1013
TAF EYKA 232300Z 2400/2424 VRB04KT 9000 NSC 
     BECMG 2406/2408 16014KT
       
EYPA 240020Z 11007KT CAVOK 08/02 Q1012
TAF EYPA 232300Z 2400/2424 VRB04KT 9000 NSC 
     BECMG 2406/2407 SCT045 
     TEMPO 2407/2418 17014KT 
     TEMPO 2418/2424 SCT030CB BKN045
       
EYSA 232350Z AUTO 10002KT 9999NDV NCD 07/04 Q1013
TAF EYSA 232300Z 2400/2409 VRB04KT CAVOK 
     BECMG 2406/2408 17014KT
       
EYVI 240020Z VRB01KT CAVOK 07/02 Q1013 NOSIG
TAF EYVI 232300Z 2400/2424 VRB04KT 9000 NSC 
     PROB40 
     TEMPO 2400/2404 0600 FG 
     BECMG 2408/2410 11014KT 
     BECMG 2418/2420 17010KT